Time;durP1;ratioP1;P1;durP2;ratioP2;P2;SDS_P1;SDS_P2;PMS_P1;PMS_P2;Temp;Humidity;BMP_temperature;BMP_pressure;BME280_temperature;BME280_humidity;BME280_pressure;Samples;Min_cycle;Max_cycle;Signal;HPM_P1;HPM_P2
2022/01/08 00:01:00;;;;;;;6.88;1.73;;;1.20;99.90;;;;;;5056887;28;20044;-64
2022/01/08 00:03:26;;;;;;;4.97;1.63;;;1.30;99.90;;;;;;5055877;28;20041;-64
2022/01/08 00:05:53;;;;;;;6.18;2.60;;;1.20;99.90;;;;;;5074907;28;20051;-64
2022/01/08 00:08:22;;;;;;;3.20;1.42;;;1.40;99.90;;;;;;5056478;28;20049;-64
2022/01/08 00:10:47;;;;;;;4.60;1.23;;;1.30;99.90;;;;;;5056489;28;20033;-64
2022/01/08 00:13:13;;;;;;;6.07;1.30;;;1.30;99.90;;;;;;5056741;28;20052;-64
2022/01/08 00:15:38;;;;;;;5.60;1.63;;;1.30;99.90;;;;;;5056494;28;20102;-64
2022/01/08 00:18:04;;;;;;;5.00;1.77;;;1.30;99.90;;;;;;5055791;28;20052;-64
2022/01/08 00:20:29;;;;;;;7.35;1.48;;;1.20;99.90;;;;;;5074636;28;20056;-64
2022/01/08 00:22:56;;;;;;;7.03;1.40;;;1.20;99.90;;;;;;5074022;28;20399;-63
2022/01/08 00:25:22;;;;;;;4.22;1.27;;;1.30;99.90;;;;;;5056222;28;20040;-64
2022/01/08 00:27:47;;;;;;;7.03;2.10;;;1.20;99.90;;;;;;5074617;28;20046;-64
2022/01/08 00:30:13;;;;;;;3.75;1.65;;;1.20;99.90;;;;;;5073422;28;20052;-64
2022/01/08 00:32:40;;;;;;;2.13;1.30;;;1.20;99.90;;;;;;5074459;28;20071;-64
2022/01/08 00:35:08;;;;;;;6.80;1.50;;;1.20;99.90;;;;;;5074342;28;20128;-64
2022/01/08 00:37:36;;;;;;;5.63;1.30;;;1.20;99.90;;;;;;5066753;28;20510;-64
2022/01/08 00:40:03;;;;;;;3.72;0.98;;;1.10;99.90;;;;;;5055478;28;20036;-64
2022/01/08 00:42:29;;;;;;;4.50;1.60;;;1.10;99.90;;;;;;5051145;28;20056;-63
2022/01/08 00:44:54;;;;;;;5.63;2.22;;;1.30;99.90;;;;;;5056527;28;20450;-64
2022/01/08 00:47:20;;;;;;;6.30;1.95;;;1.00;99.90;;;;;;5060949;28;20045;-64
2022/01/08 00:49:45;;;;;;;10.07;2.05;;;1.00;99.90;;;;;;5052445;28;20082;-64
2022/01/08 00:52:11;;;;;;;4.05;1.23;;;1.00;99.90;;;;;;5042803;28;20147;-63
2022/01/08 00:54:38;;;;;;;3.85;1.30;;;1.10;99.90;;;;;;5067511;28;20641;-64
2022/01/08 00:57:04;;;;;;;2.58;1.67;;;1.00;99.90;;;;;;5053198;28;20087;-64
2022/01/08 00:59:30;;;;;;;4.80;1.38;;;0.90;99.90;;;;;;5052935;28;20049;-64
2022/01/08 01:01:55;;;;;;;6.50;1.90;;;1.00;99.90;;;;;;5036066;28;20509;-64
2022/01/08 01:04:21;;;;;;;4.43;1.50;;;0.90;99.90;;;;;;5058472;28;20530;-64
2022/01/08 01:06:47;;;;;;;4.93;1.45;;;0.90;99.90;;;;;;5036887;28;20049;-64
2022/01/08 01:09:12;;;;;;;3.63;1.70;;;0.90;99.90;;;;;;5067531;28;20127;-64
2022/01/08 01:11:38;;;;;;;3.30;1.48;;;0.90;99.90;;;;;;5055481;28;20055;-64
2022/01/08 01:14:04;;;;;;;5.30;2.13;;;1.00;99.90;;;;;;5061668;28;20060;-64
2022/01/08 01:16:30;;;;;;;5.60;2.67;;;1.00;99.90;;;;;;5039527;28;20072;-64
2022/01/08 01:18:57;;;;;;;5.47;2.17;;;1.10;99.90;;;;;;5067875;28;20420;-63
2022/01/08 01:21:23;;;;;;;4.45;1.65;;;1.00;99.90;;;;;;5052952;28;20123;-64
2022/01/08 01:23:50;;;;;;;7.18;2.50;;;1.10;99.90;;;;;;5035411;28;20102;-64
2022/01/08 01:26:20;;;;;;;5.47;2.20;;;1.10;99.90;;;;;;5052306;28;20099;-64
2022/01/08 01:42:51;;;;;;;3.40;1.60;;;1.00;99.90;;;;;;5034165;28;20049;-64
2022/01/08 01:47:55;;;;;;;4.45;2.50;;;1.00;99.90;;;;;;5054461;28;20077;-64
2022/01/08 01:50:21;;;;;;;5.07;2.40;;;1.00;99.90;;;;;;5072583;28;20486;-64
2022/01/08 01:52:46;;;;;;;5.28;2.30;;;1.10;99.90;;;;;;5054799;28;20071;-64
2022/01/08 01:55:12;;;;;;;2.70;1.50;;;1.00;99.90;;;;;;5053659;28;20063;-64
2022/01/08 01:57:38;;;;;;;11.40;2.08;;;1.00;99.90;;;;;;5072829;28;20044;-64
2022/01/08 02:00:05;;;;;;;4.97;1.75;;;1.00;99.90;;;;;;5054214;28;20512;-65
2022/01/08 02:02:31;;;;;;;4.03;2.63;;;1.00;99.90;;;;;;5072018;28;20076;-64
2022/01/08 02:04:57;;;;;;;9.15;2.60;;;1.00;99.90;;;;;;5054364;28;20154;-64
2022/01/08 02:07:26;;;;;;;4.80;2.60;;;1.00;99.90;;;;;;5072220;28;20046;-64
2022/01/08 02:09:54;;;;;;;4.93;2.45;;;1.00;99.90;;;;;;5071853;28;20040;-64
2022/01/08 02:12:22;;;;;;;4.82;2.03;;;1.00;99.90;;;;;;5072055;28;20127;-64
2022/01/08 02:14:48;;;;;;;3.78;1.60;;;0.90;99.90;;;;;;5065676;28;20048;-64
2022/01/08 02:17:14;;;;;;;7.78;1.80;;;1.00;99.90;;;;;;5055103;28;20064;-64
2022/01/08 02:19:41;;;;;;;5.60;1.80;;;1.00;99.90;;;;;;5069350;28;20127;-64
2022/01/08 02:22:10;;;;;;;6.28;1.75;;;0.90;99.90;;;;;;5040162;28;20438;-64
2022/01/08 02:24:36;;;;;;;4.60;1.90;;;0.90;99.90;;;;;;5051490;28;20056;-65
2022/01/08 02:27:02;;;;;;;5.28;1.80;;;1.00;99.90;;;;;;5052057;28;20044;-64
2022/01/08 02:29:28;;;;;;;4.70;1.52;;;1.00;99.90;;;;;;5051284;28;20102;-64
2022/01/08 02:31:57;;;;;;;6.68;1.73;;;1.10;99.90;;;;;;5034090;28;20510;-64
2022/01/08 02:34:24;;;;;;;4.78;1.73;;;1.10;99.90;;;;;;5033703;28;20103;-64
2022/01/08 02:36:50;;;;;;;8.15;2.47;;;1.10;99.90;;;;;;5033249;28;20049;-65
2022/01/08 02:39:15;;;;;;;6.05;1.63;;;1.20;99.90;;;;;;5050955;28;20525;-64
2022/01/08 02:41:41;;;;;;;4.07;1.63;;;1.20;99.90;;;;;;5051829;28;20045;-64
2022/01/08 02:44:07;;;;;;;2.80;1.45;;;1.20;99.90;;;;;;5051032;28;20044;-64
2022/01/08 02:46:33;;;;;;;2.22;1.25;;;1.20;99.90;;;;;;5033898;28;20136;-64
2022/01/08 02:48:59;;;;;;;3.90;1.00;;;1.20;99.90;;;;;;5033642;28;20092;-65
2022/01/08 02:51:24;;;;;;;4.82;1.33;;;1.20;99.90;;;;;;5040262;28;20044;-64
2022/01/08 02:53:51;;;;;;;6.75;0.90;;;1.10;99.90;;;;;;5046583;28;20380;-64
2022/01/08 02:56:17;;;;;;;1.63;1.00;;;1.30;99.90;;;;;;5038488;28;20045;-64
2022/01/08 02:58:42;;;;;;;4.00;0.95;;;1.00;99.90;;;;;;5032781;28;20049;-64
2022/01/08 03:01:08;;;;;;;2.92;0.90;;;1.20;99.90;;;;;;5033200;28;20056;-64
2022/01/08 03:03:33;;;;;;;2.15;1.00;;;0.90;99.90;;;;;;5051552;28;20564;-64
2022/01/08 03:05:59;;;;;;;2.80;0.73;;;0.90;99.90;;;;;;5032851;28;20052;-64
2022/01/08 03:08:26;;;;;;;4.00;0.75;;;0.90;99.90;;;;;;5033025;28;20419;-64
2022/01/08 03:10:52;;;;;;;1.55;0.77;;;1.00;99.90;;;;;;5051340;28;20045;-64
2022/01/08 03:13:18;;;;;;;3.20;0.50;;;0.80;99.90;;;;;;5050347;28;20184;-64
2022/01/08 03:15:44;;;;;;;0.60;0.52;;;0.80;99.90;;;;;;5051104;28;20460;-64
2022/01/08 03:18:09;;;;;;;5.57;1.13;;;0.70;99.90;;;;;;5051055;28;20044;-64
2022/01/08 03:20:43;;;;;;;2.17;0.60;;;0.70;99.90;;;;;;5050531;28;20054;-64
2022/01/08 03:23:14;;;;;;;3.30;0.80;;;0.70;99.90;;;;;;5050958;28;20045;-64
2022/01/08 03:25:39;;;;;;;1.85;0.47;;;0.60;99.90;;;;;;5032267;28;20052;-64
2022/01/08 03:28:05;;;;;;;4.10;0.55;;;0.60;99.90;;;;;;5032875;28;20056;-64
2022/01/08 03:30:30;;;;;;;1.17;0.50;;;0.80;99.90;;;;;;5033501;28;20052;-64
2022/01/08 03:32:56;;;;;;;1.77;0.50;;;0.60;99.90;;;;;;5031866;28;20140;-64
2022/01/08 03:35:22;;;;;;;5.88;1.40;;;0.60;99.90;;;;;;5050289;28;20072;-64
2022/01/08 03:37:48;;;;;;;3.20;0.57;;;0.50;99.90;;;;;;5050876;28;20041;-64
2022/01/08 03:40:13;;;;;;;2.40;0.70;;;0.50;99.90;;;;;;5049872;28;20110;-64
2022/01/08 03:42:39;;;;;;;4.03;0.88;;;0.80;99.90;;;;;;5032851;28;20041;-64
2022/01/08 03:45:05;;;;;;;3.42;1.10;;;0.50;99.90;;;;;;5032762;28;20060;-65
2022/01/08 03:47:53;;;;;;;18.77;1.08;;;0.50;99.90;;;;;;5050019;28;20534;-64
2022/01/08 03:50:17;;;;;;;2.95;0.80;;;0.50;99.90;;;;;;5050246;28;20057;-65
2022/01/08 03:52:44;;;;;;;4.90;1.05;;;0.50;99.90;;;;;;5050912;28;20045;-64
2022/01/08 03:55:10;;;;;;;4.55;1.00;;;0.50;99.90;;;;;;5049762;28;20790;-64
2022/01/08 03:57:35;;;;;;;5.55;0.95;;;0.50;99.90;;;;;;5050782;28;20140;-64
2022/01/08 04:00:02;;;;;;;3.42;0.93;;;0.60;99.90;;;;;;5032772;28;20048;-65
2022/01/08 04:02:27;;;;;;;0.80;0.52;;;0.60;99.90;;;;;;5049769;28;20053;-64
2022/01/08 04:04:53;;;;;;;3.72;1.08;;;0.60;99.90;;;;;;5032466;28;20049;-64
2022/01/08 04:07:18;;;;;;;1.58;0.70;;;0.60;99.90;;;;;;5032287;28;20131;-64
2022/01/08 04:09:45;;;;;;;3.95;1.20;;;0.60;99.90;;;;;;5031746;28;20468;-64
2022/01/08 04:12:15;;;;;;;5.00;0.90;;;0.50;99.90;;;;;;5050273;28;20484;-64
2022/01/08 04:15:04;;;;;;;1.10;0.65;;;0.60;99.90;;;;;;5050533;28;20063;-64
2022/01/08 04:17:30;;;;;;;7.93;1.20;;;0.60;99.90;;;;;;5050556;28;20045;-64
2022/01/08 04:19:55;;;;;;;4.70;0.70;;;0.60;99.90;;;;;;5050358;28;20056;-64
2022/01/08 04:22:21;;;;;;;2.80;0.68;;;0.80;99.90;;;;;;5049558;28;20052;-64
2022/01/08 04:24:46;;;;;;;6.05;1.83;;;0.80;99.90;;;;;;5050646;28;20064;-64
2022/01/08 04:27:12;;;;;;;3.75;1.30;;;0.80;99.90;;;;;;5032309;28;20080;-64
2022/01/08 04:29:38;;;;;;;6.30;1.23;;;1.00;99.90;;;;;;5049799;28;20045;-64
2022/01/08 04:32:03;;;;;;;4.20;1.00;;;1.00;99.90;;;;;;5050186;28;20123;-64
2022/01/08 04:34:29;;;;;;;5.53;0.88;;;1.10;99.90;;;;;;5050599;28;20055;-64
2022/01/08 04:36:55;;;;;;;3.55;1.17;;;1.10;99.90;;;;;;5032146;28;20499;-64
2022/01/08 04:39:20;;;;;;;3.70;1.17;;;1.20;99.90;;;;;;5031738;28;20048;-64
2022/01/08 04:41:46;;;;;;;5.35;0.75;;;1.20;99.90;;;;;;5032475;28;20099;-64
2022/01/08 04:44:11;;;;;;;2.78;0.82;;;1.20;99.90;;;;;;5031479;28;20044;-64
2022/01/08 04:46:38;;;;;;;5.45;1.10;;;1.30;99.90;;;;;;5053773;28;20436;-64
2022/01/08 04:49:05;;;;;;;3.83;1.60;;;1.30;99.90;;;;;;5053856;28;20536;-64
2022/01/08 04:51:31;;;;;;;3.63;0.88;;;1.40;99.90;;;;;;5035442;28;20041;-64
2022/01/08 04:53:56;;;;;;;11.65;1.65;;;1.40;99.90;;;;;;5053849;28;20055;-64
2022/01/08 04:56:25;;;;;;;7.10;1.48;;;1.40;99.90;;;;;;5035842;28;20074;-64
2022/01/08 04:58:50;;;;;;;3.72;1.08;;;1.40;99.90;;;;;;5034721;28;20084;-64
2022/01/08 05:01:17;;;;;;;3.53;0.93;;;1.40;99.90;;;;;;5035372;28;20503;-64
2022/01/08 05:03:43;;;;;;;8.45;1.42;;;1.40;99.90;;;;;;5035990;28;20044;-64
2022/01/08 05:06:09;;;;;;;3.75;1.35;;;1.50;99.90;;;;;;5035076;28;20045;-64
2022/01/08 05:08:35;;;;;;;4.93;1.05;;;1.40;99.90;;;;;;5056250;28;20037;-64
2022/01/08 05:11:00;;;;;;;6.80;1.73;;;1.40;99.90;;;;;;5057138;28;20091;-65
2022/01/08 05:13:26;;;;;;;5.60;1.27;;;1.40;99.90;;;;;;5041805;28;20395;-64
2022/01/08 05:15:51;;;;;;;3.15;1.40;;;1.30;99.90;;;;;;5055344;28;20056;-64
2022/01/08 05:18:17;;;;;;;7.65;1.50;;;1.30;99.90;;;;;;5050819;28;20186;-64
2022/01/08 05:20:51;;;;;;;3.75;0.68;;;1.20;99.90;;;;;;5073476;28;20048;-64
2022/01/08 05:23:17;;;;;;;5.97;1.33;;;1.20;99.90;;;;;;5060800;28;20451;-64
2022/01/08 05:25:43;;;;;;;3.17;0.90;;;1.20;99.90;;;;;;5063201;28;20171;-64
2022/01/08 05:28:08;;;;;;;3.85;1.35;;;1.20;99.90;;;;;;5040664;28;20472;-64
2022/01/08 05:30:34;;;;;;;6.03;1.73;;;1.20;99.90;;;;;;5070591;28;20081;-64
2022/01/08 05:32:59;;;;;;;3.33;0.80;;;1.10;99.90;;;;;;5072703;28;20048;-64
2022/01/08 05:35:26;;;;;;;3.85;0.73;;;1.10;99.90;;;;;;5064618;28;20128;-64
2022/01/08 05:37:53;;;;;;;3.55;1.17;;;1.10;99.90;;;;;;5035129;28;20139;-64
2022/01/08 05:40:19;;;;;;;4.18;1.38;;;1.00;99.90;;;;;;5052209;28;20052;-64
2022/01/08 05:42:45;;;;;;;6.25;0.90;;;1.00;99.90;;;;;;5035231;28;20057;-64
2022/01/08 05:45:11;;;;;;;4.78;0.95;;;1.00;99.90;;;;;;5052620;28;20044;-64
2022/01/08 05:47:36;;;;;;;7.57;1.63;;;1.00;99.90;;;;;;5052210;28;20102;-64
2022/01/08 05:50:04;;;;;;;1.63;0.75;;;1.00;99.90;;;;;;5052922;28;20123;-65
2022/01/08 05:52:29;;;;;;;8.43;1.58;;;1.00;99.90;;;;;;5052752;28;20053;-64
2022/01/08 05:54:55;;;;;;;5.95;1.17;;;1.00;99.90;;;;;;5052151;28;20056;-65
2022/01/08 05:57:21;;;;;;;5.88;0.93;;;1.00;99.90;;;;;;5051456;28;20055;-64
2022/01/08 05:59:46;;;;;;;3.88;1.40;;;1.00;99.90;;;;;;5039771;28;20127;-64
2022/01/08 06:02:12;;;;;;;1.38;0.88;;;1.20;99.90;;;;;;5034093;28;20103;-64
2022/01/08 06:04:38;;;;;;;3.75;0.70;;;1.20;99.90;;;;;;5042090;28;20048;-64
2022/01/08 06:07:04;;;;;;;4.32;0.93;;;1.00;99.90;;;;;;5066522;28;20090;-64
2022/01/08 06:09:30;;;;;;;2.13;0.85;;;0.90;99.90;;;;;;5057465;28;20045;-64
2022/01/08 06:11:56;;;;;;;2.22;0.98;;;0.90;99.90;;;;;;5038486;28;20135;-64
2022/01/08 06:14:21;;;;;;;5.30;1.00;;;0.80;99.90;;;;;;5072129;28;20044;-64
2022/01/08 06:16:48;;;;;;;5.55;1.88;;;1.90;99.90;;;;;;5071672;28;20098;-64
2022/01/08 06:19:15;;;;;;;3.42;1.45;;;0.70;99.90;;;;;;5045243;28;20060;-64
2022/01/08 06:21:41;;;;;;;3.15;0.90;;;0.60;99.90;;;;;;5033723;28;20084;-64
2022/01/08 06:24:07;;;;;;;2.92;0.93;;;0.60;99.90;;;;;;5051936;28;20463;-64
2022/01/08 06:26:33;;;;;;;2.45;1.17;;;0.50;99.90;;;;;;5034576;28;20391;-64
2022/01/08 06:28:59;;;;;;;13.65;2.72;;;0.50;99.90;;;;;;5057916;28;20553;-64
2022/01/08 06:31:25;;;;;;;3.97;1.08;;;0.40;99.90;;;;;;5065393;28;20049;-64
2022/01/08 06:33:51;;;;;;;66.35;8.50;;;0.50;99.90;;;;;;5064791;28;20102;-64
2022/01/08 06:36:18;;;;;;;3.75;1.40;;;0.40;99.90;;;;;;5055199;28;20045;-64
2022/01/08 06:38:44;;;;;;;69.28;10.95;;;0.40;99.90;;;;;;5051444;28;20063;-64
2022/01/08 06:41:10;;;;;;;5.38;1.83;;;0.40;99.90;;;;;;5033847;28;20052;-64
2022/01/08 06:43:36;;;;;;;5.97;1.80;;;0.40;99.90;;;;;;5051584;28;20166;-64
2022/01/08 06:46:02;;;;;;;8.85;3.08;;;0.60;99.90;;;;;;5042624;28;20519;-65
2022/01/08 06:48:28;;;;;;;7.80;2.88;;;0.30;99.90;;;;;;5068626;28;20041;-64
2022/01/08 06:50:53;;;;;;;4.25;2.10;;;0.30;99.90;;;;;;5032916;28;20064;-64
2022/01/08 06:53:19;;;;;;;6.78;2.00;;;0.30;99.90;;;;;;5039596;28;20056;-64
2022/01/08 06:55:45;;;;;;;3.45;1.77;;;0.30;99.90;;;;;;5071402;28;20554;-64
2022/01/08 06:58:10;;;;;;;23.70;3.88;;;0.20;99.90;;;;;;5052507;28;20052;-64
2022/01/08 07:00:38;;;;;;;9.23;2.88;;;0.20;99.90;;;;;;5053293;28;20398;-64
2022/01/08 07:03:09;;;;;;;8.02;2.53;;;0.20;99.90;;;;;;5053319;28;20044;-64
2022/01/08 07:05:35;;;;;;;16.95;3.67;;;0.20;99.90;;;;;;5052268;28;20056;-64
2022/01/08 07:08:01;;;;;;;4.63;2.35;;;0.20;99.90;;;;;;5053373;28;20064;-64
2022/01/08 07:10:26;;;;;;;8.15;3.47;;;0.20;99.90;;;;;;5049686;28;20048;-64
2022/01/08 07:12:52;;;;;;;4.40;2.50;;;0.20;99.90;;;;;;5070807;28;20399;-64
2022/01/08 07:15:17;;;;;;;5.72;3.00;;;0.20;99.90;;;;;;5061404;28;20140;-64
2022/01/08 07:17:46;;;;;;;5.30;2.85;;;0.20;99.90;;;;;;5056167;28;20087;-64
2022/01/08 07:20:13;;;;;;;11.80;3.40;;;1.50;99.90;;;;;;5061585;28;20483;-64
2022/01/08 07:22:39;;;;;;;3.58;2.60;;;0.20;99.90;;;;;;5042581;28;20060;-64
2022/01/08 07:25:05;;;;;;;8.32;3.13;;;0.20;99.90;;;;;;5052143;28;20058;-64
2022/01/08 07:27:32;;;;;;;7.65;3.15;;;0.20;99.90;;;;;;5043121;28;20045;-64
2022/01/08 07:29:59;;;;;;;5.85;3.40;;;0.20;99.90;;;;;;5053109;28;20061;-64
2022/01/08 07:32:25;;;;;;;10.98;3.88;;;0.10;99.90;;;;;;5058940;28;20053;-63
2022/01/08 07:34:51;;;;;;;10.18;3.97;;;0.20;99.90;;;;;;5042422;28;20406;-64
2022/01/08 07:37:17;;;;;;;11.02;4.53;;;0.30;99.90;;;;;;5046463;28;20045;-64
2022/01/08 07:39:42;;;;;;;10.68;4.22;;;0.20;99.90;;;;;;5050198;28;20055;-64
2022/01/08 07:42:08;;;;;;;12.73;4.13;;;0.30;99.90;;;;;;5050745;28;20492;-64
2022/01/08 07:44:33;;;;;;;10.20;4.05;;;0.40;99.90;;;;;;5047162;28;20507;-64
2022/01/08 07:47:00;;;;;;;11.98;3.70;;;0.20;99.90;;;;;;5067269;28;20487;-64
2022/01/08 07:49:26;;;;;;;15.80;4.97;;;0.20;99.90;;;;;;5052714;28;20413;-64
2022/01/08 07:51:51;;;;;;;6.47;3.83;;;0.20;99.90;;;;;;5058817;28;20055;-63
2022/01/08 07:54:17;;;;;;;14.27;4.43;;;0.10;99.90;;;;;;5049934;28;20037;-64
2022/01/08 07:56:42;;;;;;;8.35;4.38;;;0.10;99.90;;;;;;5057104;28;20530;-64
2022/01/08 07:59:08;;;;;;;6.45;4.53;;;0.10;99.90;;;;;;5039910;28;20452;-64
2022/01/08 08:01:33;;;;;;;12.77;4.65;;;0.20;99.90;;;;;;5031826;28;20139;-64
2022/01/08 08:03:59;;;;;;;9.45;4.07;;;0.10;99.90;;;;;;5070316;28;20037;-64
2022/01/08 08:06:25;;;;;;;10.30;4.45;;;0.40;99.90;;;;;;5052436;28;20384;-64
2022/01/08 08:08:50;;;;;;;11.15;4.28;;;0.20;99.90;;;;;;5051758;28;20701;-64
2022/01/08 08:11:16;;;;;;;7.75;4.75;;;0.30;99.90;;;;;;5070439;28;20037;-64
2022/01/08 08:13:41;;;;;;;7.95;4.15;;;0.20;99.90;;;;;;5070002;28;20052;-64
2022/01/08 08:16:07;;;;;;;11.65;4.47;;;0.20;99.90;;;;;;5066482;28;20060;-64
2022/01/08 08:18:33;;;;;;;10.98;4.72;;;0.30;99.90;;;;;;5066274;28;20036;-64
2022/01/08 08:20:58;;;;;;;10.95;6.72;;;0.30;99.90;;;;;;5035024;28;20092;-64
2022/01/08 08:23:24;;;;;;;9.82;4.25;;;0.40;99.90;;;;;;5048126;28;20044;-64
2022/01/08 08:25:50;;;;;;;12.90;4.78;;;0.40;99.90;;;;;;5074647;28;20135;-64
2022/01/08 08:28:15;;;;;;;15.23;4.93;;;0.50;99.90;;;;;;5048047;28;20135;-64
2022/01/08 08:30:41;;;;;;;16.02;4.97;;;0.60;99.90;;;;;;5041033;28;20049;-64
2022/01/08 08:33:07;;;;;;;9.73;4.10;;;0.60;99.90;;;;;;5068487;28;20137;-64
2022/01/08 08:35:33;;;;;;;8.35;3.75;;;0.70;99.90;;;;;;5073530;28;20044;-64
2022/01/08 08:37:59;;;;;;;11.80;3.85;;;0.70;99.90;;;;;;5056024;28;20055;-64
2022/01/08 08:40:24;;;;;;;10.80;4.10;;;0.80;99.90;;;;;;5053997;28;20128;-64
2022/01/08 08:42:50;;;;;;;11.30;5.30;;;0.90;99.90;;;;;;5053446;28;20495;-64
2022/01/08 08:45:16;;;;;;;11.57;3.60;;;0.90;99.90;;;;;;5055367;28;20040;-64
2022/01/08 08:47:42;;;;;;;8.40;3.33;;;1.00;99.90;;;;;;5046294;28;20049;-64
2022/01/08 08:50:10;;;;;;;7.93;3.30;;;1.00;99.90;;;;;;5047854;28;20044;-64
2022/01/08 08:52:36;;;;;;;9.57;4.18;;;1.00;99.90;;;;;;5046275;28;20043;-64
2022/01/08 08:55:02;;;;;;;8.23;4.53;;;1.00;99.90;;;;;;5059721;28;20041;-64
2022/01/08 08:57:27;;;;;;;10.25;3.60;;;1.00;99.90;;;;;;5035945;28;20115;-64
2022/01/08 08:59:55;;;;;;;10.18;4.22;;;1.10;99.90;;;;;;5048267;28;20101;-64
2022/01/08 09:02:21;;;;;;;8.63;3.65;;;1.00;99.90;;;;;;5042429;28;20044;-64
2022/01/08 09:04:47;;;;;;;6.78;4.40;;;1.10;99.90;;;;;;5039771;28;20047;-64
2022/01/08 09:07:12;;;;;;;8.38;4.80;;;1.10;99.90;;;;;;5057130;28;21281;-64
2022/01/08 09:09:38;;;;;;;7.40;4.47;;;1.20;99.90;;;;;;5048495;28;20052;-64
2022/01/08 09:12:04;;;;;;;11.32;3.80;;;1.20;99.90;;;;;;5043730;28;20080;-64
2022/01/08 09:14:29;;;;;;;6.80;4.60;;;1.30;99.90;;;;;;5053718;28;20102;-64
2022/01/08 09:17:00;;;;;;;13.27;5.45;;;1.30;99.90;;;;;;5068684;28;20423;-64
2022/01/08 09:19:25;;;;;;;6.43;3.60;;;1.50;99.90;;;;;;5047793;28;20064;-64
2022/01/08 09:21:51;;;;;;;7.93;4.45;;;1.40;99.90;;;;;;5058523;28;20045;-64
2022/01/08 09:24:21;;;;;;;6.70;3.70;;;1.50;99.90;;;;;;5041366;28;20487;-64
2022/01/08 09:26:48;;;;;;;10.10;3.75;;;1.50;99.90;;;;;;5060526;28;20036;-65
2022/01/08 09:29:15;;;;;;;6.60;3.90;;;1.60;99.90;;;;;;5057555;28;20388;-63
2022/01/08 09:31:41;;;;;;;7.88;3.85;;;1.70;99.90;;;;;;5056808;28;20053;-65
2022/01/08 09:34:08;;;;;;;8.10;3.63;;;1.70;99.90;;;;;;5043008;28;20075;-65
2022/01/08 09:36:34;;;;;;;12.20;3.70;;;1.70;99.90;;;;;;5048392;28;20056;-65
2022/01/08 09:39:00;;;;;;;5.70;3.42;;;1.70;99.90;;;;;;5068341;28;20068;-64
2022/01/08 09:41:25;;;;;;;10.13;3.80;;;1.70;99.90;;;;;;5061093;28;20052;-65
2022/01/08 09:43:51;;;;;;;12.35;3.72;;;1.70;99.90;;;;;;5064336;28;20052;-65
2022/01/08 09:46:19;;;;;;;7.13;3.03;;;1.70;99.90;;;;;;5068169;28;20102;-65
2022/01/08 09:48:45;;;;;;;7.90;3.28;;;1.90;99.90;;;;;;5043221;28;20125;-65
2022/01/08 09:51:11;;;;;;;8.25;3.22;;;1.80;99.90;;;;;;5039481;28;20086;-65
2022/01/08 09:53:37;;;;;;;13.43;3.85;;;1.90;99.90;;;;;;5045698;28;20102;-65
2022/01/08 09:56:04;;;;;;;9.90;3.80;;;1.90;99.90;;;;;;5054878;28;20056;-64
2022/01/08 09:58:30;;;;;;;6.35;3.25;;;2.10;99.90;;;;;;5072845;28;20045;-65
2022/01/08 10:00:55;;;;;;;13.13;4.03;;;2.10;99.90;;;;;;5053822;28;20114;-65
2022/01/08 10:03:26;;;;;;;13.38;4.05;;;2.10;99.90;;;;;;5040263;28;20450;-65
2022/01/08 10:05:58;;;;;;;14.65;4.10;;;2.20;99.90;;;;;;5049297;28;20467;-64
2022/01/08 10:08:33;;;;;;;7.75;3.78;;;2.30;99.90;;;;;;5051956;28;20056;-64
2022/01/08 10:11:06;;;;;;;9.02;3.05;;;2.20;99.90;;;;;;5071675;28;20556;-71
2022/01/08 10:13:39;;;;;;;7.55;3.83;;;2.20;99.90;;;;;;5071522;28;20048;-66
2022/01/08 10:18:54;;;;;;;9.20;3.30;;;2.20;99.90;;;;;;5072386;28;20056;-66
2022/01/08 10:21:27;;;;;;;7.30;3.35;;;2.20;99.90;;;;;;5071224;28;20059;-69
2022/01/08 10:23:57;;;;;;;;;;;2.20;99.90;;;;;;5072613;28;20048;-69
2022/01/08 10:26:30;;;;;;;5.35;3.15;;;2.30;99.90;;;;;;5053997;28;20390;-69
2022/01/08 10:29:01;;;;;;;8.85;3.45;;;2.30;99.90;;;;;;5071585;28;20147;-69
2022/01/08 10:31:40;;;;;;;9.30;3.00;;;2.30;99.90;;;;;;5071866;28;20514;-71
2022/01/08 10:34:11;;;;;;;8.10;3.08;;;2.40;99.90;;;;;;5053893;28;20139;-69
2022/01/08 10:36:42;;;;;;;6.70;2.90;;;2.40;99.90;;;;;;5053555;28;20053;-69
2022/01/08 10:39:11;;;;;;;16.85;3.63;;;2.40;99.90;;;;;;5053520;28;20098;-68
2022/01/08 10:41:42;;;;;;;7.00;3.25;;;2.50;99.90;;;;;;5053916;28;20059;-67
2022/01/08 10:44:13;;;;;;;16.00;3.15;;;2.50;99.90;;;;;;5053195;28;20052;-69
2022/01/08 10:46:45;;;;;;;10.18;3.72;;;2.60;99.90;;;;;;5054108;28;20130;-69
2022/01/08 10:49:14;;;;;;;6.90;3.20;;;2.60;99.90;;;;;;5052865;28;20498;-69
2022/01/08 10:51:40;;;;;;;10.35;2.88;;;2.60;99.90;;;;;;5053487;28;20068;-69
2022/01/08 10:54:13;;;;;;;9.95;3.50;;;2.60;99.90;;;;;;5053688;28;20059;-69
2022/01/08 10:56:41;;;;;;;13.13;3.28;;;2.60;99.90;;;;;;5070951;28;20052;-69
2022/01/08 10:59:21;;;;;;;9.68;3.95;;;2.70;99.90;;;;;;5052614;28;20053;-69
2022/01/08 11:01:50;;;;;;;6.28;3.30;;;2.70;99.90;;;;;;5039884;28;20044;-70
2022/01/08 11:04:19;;;;;;;12.13;3.83;;;2.70;99.90;;;;;;5044800;28;20052;-69
2022/01/08 11:06:51;;;;;;;8.60;3.22;;;2.70;99.90;;;;;;5059291;28;20036;-68
2022/01/08 11:09:17;;;;;;;9.48;3.47;;;2.70;99.90;;;;;;5064526;28;20487;-68
2022/01/08 11:11:44;;;;;;;5.72;3.42;;;2.80;99.90;;;;;;5056136;28;20119;-68
2022/01/08 11:14:21;;;;;;;9.07;3.58;;;2.80;99.90;;;;;;5050864;28;20149;-68
2022/01/08 11:16:51;;;;;;;7.47;3.75;;;2.90;99.90;;;;;;5058452;28;20085;-64
2022/01/08 11:19:18;;;;;;;9.65;4.57;;;2.90;99.90;;;;;;5033356;28;20049;-64
2022/01/08 11:21:50;;;;;;;12.32;4.43;;;2.90;99.90;;;;;;5065444;28;20052;-63
2022/01/08 11:24:17;;;;;;;6.90;3.97;;;3.00;99.90;;;;;;5052082;28;20102;-63
2022/01/08 11:26:45;;;;;;;6.53;4.53;;;3.00;99.90;;;;;;5052444;28;20056;-63
2022/01/08 11:29:12;;;;;;;11.02;4.47;;;3.00;99.90;;;;;;5046094;28;20170;-63
2022/01/08 11:31:38;;;;;;;11.23;5.60;;;3.10;99.90;;;;;;5050762;28;20052;-63
2022/01/08 11:34:09;;;;;;;25.73;5.78;;;3.10;99.90;;;;;;5062092;28;20051;-63
2022/01/08 11:36:35;;;;;;;6.32;4.10;;;3.20;99.90;;;;;;5057430;28;20462;-63
2022/01/08 11:39:02;;;;;;;9.38;5.30;;;3.20;99.90;;;;;;5068784;28;20060;-63
2022/01/08 11:41:29;;;;;;;11.32;4.78;;;3.20;99.90;;;;;;5051058;28;20044;-63
2022/01/08 11:43:55;;;;;;;9.93;4.88;;;3.20;99.90;;;;;;5061473;28;20053;-63
2022/01/08 11:46:23;;;;;;;10.93;4.90;;;3.30;99.90;;;;;;5058011;28;20479;-63
2022/01/08 11:48:51;;;;;;;7.97;4.82;;;3.30;99.90;;;;;;5059650;28;20053;-64
2022/01/08 11:51:19;;;;;;;10.48;5.32;;;3.30;99.90;;;;;;5068139;28;20048;-63
2022/01/08 11:53:53;;;;;;;11.77;5.78;;;3.30;99.90;;;;;;5053308;28;20545;-63
2022/01/08 11:56:30;;;;;;;12.35;5.00;;;3.40;99.90;;;;;;5051226;28;20044;-63
2022/01/08 11:59:17;;;;;;;8.45;4.32;;;3.40;99.90;;;;;;5051141;28;20071;-63
2022/01/08 12:02:02;;;;;;;9.98;4.45;;;3.40;99.90;;;;;;5069178;28;20463;-63
2022/01/08 12:04:32;;;;;;;12.38;5.50;;;3.40;99.90;;;;;;5034372;28;20096;-63
2022/01/08 12:07:18;;;;;;;9.65;5.07;;;3.40;99.90;;;;;;5036135;28;20056;-63
2022/01/08 12:09:46;;;;;;;11.43;5.70;;;3.40;99.90;;;;;;5031929;28;20152;-63
2022/01/08 12:12:11;;;;;;;8.95;5.20;;;3.40;99.90;;;;;;5031180;28;20052;-65
2022/01/08 12:14:37;;;;;;;10.68;5.28;;;3.40;99.90;;;;;;5048279;28;20132;-73
2022/01/08 12:17:21;;;;;;;19.95;5.57;;;3.40;99.90;;;;;;5031933;28;20048;-63
2022/01/08 12:19:55;;;;;;;9.85;5.50;;;3.40;99.90;;;;;;5052726;28;20037;-63
2022/01/08 12:22:21;;;;;;;6.80;4.72;;;3.40;99.90;;;;;;5068299;28;20056;-63
2022/01/08 12:24:52;;;;;;;12.93;4.93;;;3.40;99.90;;;;;;5051211;28;20453;-63
2022/01/08 12:27:38;;;;;;;13.43;5.25;;;3.40;99.90;;;;;;5068377;28;20132;-63
2022/01/08 12:30:20;;;;;;;8.48;5.47;;;3.40;99.90;;;;;;5050522;28;20055;-63
2022/01/08 12:32:52;;;;;;;14.32;7.07;;;3.40;99.90;;;;;;5044505;28;20109;-63
2022/01/08 12:37:48;;;;;;;12.60;6.63;;;3.40;99.90;;;;;;5031440;28;20433;-63
2022/01/08 12:40:31;;;;;;;14.68;6.78;;;3.40;99.90;;;;;;5031071;28;20068;-63
2022/01/08 12:42:57;;;;;;;12.48;7.68;;;3.40;99.90;;;;;;5050430;28;20188;-62
2022/01/08 12:45:29;;;;;;;10.55;6.43;;;3.40;99.90;;;;;;5031474;28;20059;-63
2022/01/08 12:48:08;;;;;;;12.25;7.45;;;3.40;99.90;;;;;;5030689;28;20057;-63
2022/01/08 12:50:43;;;;;;;12.10;7.53;;;3.40;99.90;;;;;;5046798;28;20555;-63
2022/01/08 12:53:12;;;;;;;15.55;7.93;;;3.40;99.90;;;;;;5047283;28;20033;-63
2022/01/08 12:55:44;;;;;;;10.05;7.47;;;3.40;99.90;;;;;;5047317;28;20060;-63
2022/01/08 12:58:18;;;;;;;17.88;8.65;;;3.40;99.90;;;;;;5048132;28;20041;-63
2022/01/08 13:01:01;;;;;;;14.60;9.18;;;3.40;99.90;;;;;;5047646;28;20061;-63
2022/01/08 13:03:31;;;;;;;14.98;9.20;;;3.40;99.90;;;;;;5047160;28;20036;-63
2022/01/08 13:05:59;;;;;;;12.05;7.95;;;3.50;99.90;;;;;;5048973;28;20057;-63
2022/01/08 13:08:27;;;;;;;13.32;9.10;;;3.40;99.90;;;;;;5052533;28;20060;-63
2022/01/08 13:10:56;;;;;;;14.32;8.52;;;3.50;99.90;;;;;;5052107;28;20048;-62
2022/01/08 13:13:24;;;;;;;15.70;8.88;;;3.50;99.90;;;;;;5053021;28;20040;-64
2022/01/08 13:15:50;;;;;;;15.43;10.25;;;3.50;99.90;;;;;;5061769;28;20052;-63
2022/01/08 13:18:18;;;;;;;17.60;9.75;;;3.50;99.90;;;;;;5068785;28;20139;-63